createdAt,value
2023-05-22T00:00:03.300Z,8.54
2023-05-22T00:01:03.415Z,9.17
2023-05-22T00:02:03.538Z,9.03
2023-05-22T00:03:03.688Z,7.78
2023-05-22T00:04:03.721Z,8.22
2023-05-22T00:05:03.813Z,8.04
2023-05-22T00:06:03.909Z,8.68
2023-05-22T00:07:04.036Z,8.40
2023-05-22T00:08:04.137Z,8.26
2023-05-22T00:09:04.248Z,7.86
2023-05-22T00:10:04.354Z,8.69
2023-05-22T00:11:04.538Z,8.49
2023-05-22T00:12:04.761Z,9.15
2023-05-22T00:13:04.838Z,8.84
2023-05-22T00:14:05.038Z,8.82
2023-05-22T00:15:05.177Z,9.12
2023-05-22T00:16:05.324Z,9.90
2023-05-22T00:17:05.558Z,8.32
2023-05-22T00:18:05.851Z,9.07
2023-05-22T00:19:05.969Z,9.01
2023-05-22T00:20:06.079Z,9.18
2023-05-22T00:21:06.220Z,9.60
2023-05-22T00:22:06.395Z,9.71
2023-05-22T00:23:06.478Z,8.94
2023-05-22T00:24:06.661Z,9.23
2023-05-22T00:25:06.838Z,8.61
2023-05-22T00:26:06.950Z,9.34
2023-05-22T00:27:07.119Z,8.69
2023-05-22T00:28:07.293Z,8.33
2023-05-22T00:29:07.416Z,9.07
2023-05-22T00:30:07.561Z,9.64
2023-05-22T00:31:07.667Z,8.37
2023-05-22T00:32:07.826Z,9.39
2023-05-22T00:33:08.028Z,9.38
2023-05-22T00:34:08.145Z,8.79
2023-05-22T00:35:08.255Z,9.37
2023-05-22T00:36:08.400Z,7.87
2023-05-22T00:37:08.484Z,8.74
2023-05-22T00:38:08.597Z,8.96
2023-05-22T00:39:08.726Z,8.82
2023-05-22T00:40:08.872Z,8.80
2023-05-22T00:41:09.026Z,8.45
2023-05-22T00:42:09.161Z,9.21
2023-05-22T00:43:09.252Z,8.16
2023-05-22T00:44:09.401Z,9.02
2023-05-22T00:45:09.560Z,9.17
2023-05-22T00:46:09.689Z,9.63
2023-05-22T00:47:09.861Z,9.13
2023-05-22T00:48:10.099Z,9.34
2023-05-22T00:49:10.151Z,8.94
2023-05-22T00:50:10.290Z,9.63
2023-05-22T00:51:10.431Z,9.58
2023-05-22T00:52:10.602Z,8.38
2023-05-22T00:53:10.739Z,8.54
2023-05-22T00:54:10.904Z,9.22
2023-05-22T00:55:11.088Z,9.59
2023-05-22T00:56:11.244Z,8.97
2023-05-22T00:57:11.415Z,8.63
2023-05-22T00:58:11.496Z,9.40
2023-05-22T00:59:11.655Z,8.94
2023-05-22T01:00:11.767Z,9.70
2023-05-22T01:01:11.947Z,9.02
2023-05-22T01:02:12.169Z,9.19
2023-05-22T01:03:12.330Z,9.75
2023-05-22T01:04:12.499Z,9.00
2023-05-22T01:05:12.463Z,9.45
2023-05-22T01:06:12.639Z,10.14
2023-05-22T01:07:12.831Z,9.36
2023-05-22T01:08:12.972Z,9.41
2023-05-22T01:09:13.121Z,9.47
2023-05-22T01:10:13.250Z,8.56
2023-05-22T01:11:13.422Z,9.52
2023-05-22T01:12:13.588Z,8.90
2023-05-22T01:13:13.801Z,9.35
2023-05-22T01:14:13.879Z,9.56
2023-05-22T01:15:14.054Z,8.67
2023-05-22T01:16:14.257Z,10.13
2023-05-22T01:17:14.399Z,9.51
2023-05-22T01:18:14.548Z,9.16
2023-05-22T01:19:14.757Z,10.15
2023-05-22T01:20:14.869Z,9.01
2023-05-22T01:21:14.991Z,10.82
2023-05-22T01:22:15.132Z,9.05
2023-05-22T01:23:15.284Z,10.05
2023-05-22T01:24:15.395Z,8.87
2023-05-22T01:25:15.557Z,9.34
2023-05-22T01:26:15.807Z,10.20
2023-05-22T01:27:15.912Z,8.69
2023-05-22T01:28:16.031Z,9.58
2023-05-22T01:29:16.213Z,8.99
2023-05-22T01:30:16.394Z,8.69
2023-05-22T01:31:16.558Z,10.06
2023-05-22T01:32:16.770Z,9.43
2023-05-22T01:33:17.162Z,9.31
2023-05-22T01:34:17.218Z,8.79
2023-05-22T01:35:17.395Z,9.69
2023-05-22T01:36:17.536Z,9.12
2023-05-22T01:37:17.685Z,10.13
2023-05-22T01:38:17.803Z,9.83
2023-05-22T01:39:17.999Z,10.06
2023-05-22T01:40:18.102Z,9.92
2023-05-22T01:41:18.232Z,9.45
2023-05-22T01:42:18.465Z,9.39
2023-05-22T01:43:18.605Z,9.95
2023-05-22T01:44:18.750Z,10.72
2023-05-22T01:45:18.930Z,9.65
2023-05-22T01:46:19.222Z,10.00
2023-05-22T01:47:19.294Z,9.44
2023-05-22T01:48:19.423Z,9.98
2023-05-22T01:49:19.552Z,9.40
2023-05-22T01:50:19.678Z,9.44
2023-05-22T01:51:19.804Z,10.02
2023-05-22T01:52:19.911Z,10.48
2023-05-22T01:53:20.034Z,9.03
2023-05-22T01:54:20.189Z,10.20
2023-05-22T01:55:20.350Z,9.62
2023-05-22T01:56:20.503Z,9.87
2023-05-22T01:57:20.671Z,9.49
2023-05-22T01:58:20.800Z,9.47
2023-05-22T01:59:20.946Z,9.33
2023-05-22T02:00:21.128Z,10.05
2023-05-22T02:01:21.382Z,9.52
2023-05-22T02:02:21.616Z,10.16
2023-05-22T02:03:21.698Z,9.51
2023-05-22T02:04:21.776Z,9.41
2023-05-22T02:05:21.890Z,9.61
2023-05-22T02:06:22.052Z,9.42
2023-05-22T02:07:22.089Z,9.36
2023-05-22T02:08:22.209Z,9.76
2023-05-22T02:09:22.308Z,10.47
2023-05-22T02:10:22.443Z,9.37
2023-05-22T02:11:22.535Z,9.98
2023-05-22T02:12:22.676Z,10.38
2023-05-22T02:13:22.762Z,10.16
2023-05-22T02:14:22.860Z,10.38
2023-05-22T02:15:23.006Z,10.56
2023-05-22T02:16:23.151Z,11.06
2023-05-22T02:17:23.238Z,10.16
2023-05-22T02:18:23.379Z,10.02
2023-05-22T02:19:23.631Z,9.26
2023-05-22T02:20:23.689Z,10.11
2023-05-22T02:21:23.859Z,9.82
2023-05-22T02:22:24.057Z,9.40
2023-05-22T02:23:24.202Z,10.13
2023-05-22T02:24:24.374Z,10.51
2023-05-22T02:25:24.551Z,10.09
2023-05-22T02:26:24.753Z,9.73
2023-05-22T02:27:24.897Z,10.18
2023-05-22T02:28:25.048Z,10.00
2023-05-22T02:29:25.224Z,10.13
2023-05-22T02:30:25.387Z,10.23
2023-05-22T02:31:25.603Z,10.10
2023-05-22T02:32:25.728Z,10.74
2023-05-22T02:33:25.805Z,9.66
2023-05-22T02:34:25.919Z,9.79
2023-05-22T02:35:26.045Z,10.13
2023-05-22T02:36:26.166Z,9.66
2023-05-22T02:37:26.302Z,9.92
2023-05-22T02:38:26.423Z,9.99
2023-05-22T02:39:26.547Z,9.38
2023-05-22T02:40:26.858Z,9.78
2023-05-22T02:41:26.779Z,9.23
2023-05-22T02:42:26.887Z,10.67
2023-05-22T02:43:26.992Z,9.77
2023-05-22T02:44:27.137Z,9.59
2023-05-22T02:45:27.233Z,10.09
2023-05-22T02:46:27.411Z,9.12
2023-05-22T02:47:27.522Z,10.58
2023-05-22T02:48:27.590Z,9.10
2023-05-22T02:49:27.711Z,10.45
2023-05-22T02:50:27.854Z,10.89
2023-05-22T02:51:27.956Z,10.05
2023-05-22T02:52:28.096Z,9.55
2023-05-22T02:53:28.240Z,9.72
2023-05-22T02:54:28.340Z,10.69
2023-05-22T02:55:28.502Z,10.94
2023-05-22T02:56:28.678Z,10.26
2023-05-22T02:57:28.869Z,9.89
2023-05-22T02:58:29.034Z,9.92
2023-05-22T02:59:29.208Z,9.81
2023-05-22T03:00:29.383Z,9.85
2023-05-22T03:01:29.576Z,9.86
2023-05-22T03:02:29.833Z,11.15
2023-05-22T03:03:29.899Z,10.35
2023-05-22T03:04:30.028Z,9.72
2023-05-22T03:05:30.202Z,9.58
2023-05-22T03:06:30.336Z,10.48
2023-05-22T03:07:30.527Z,9.98
2023-05-22T03:08:30.698Z,10.58
2023-05-22T03:09:30.877Z,11.22
2023-05-22T03:10:31.052Z,10.75
2023-05-22T03:11:31.236Z,9.92
2023-05-22T03:12:31.425Z,10.56
2023-05-22T03:13:31.581Z,10.04
2023-05-22T03:14:31.718Z,10.98
2023-05-22T03:15:31.876Z,10.54
2023-05-22T03:16:32.081Z,10.46
2023-05-22T03:17:32.221Z,10.24
2023-05-22T03:18:32.374Z,9.91
2023-05-22T03:19:32.572Z,9.85
2023-05-22T03:20:32.726Z,10.46
2023-05-22T03:21:32.903Z,9.78
2023-05-22T03:22:33.032Z,10.08
2023-05-22T03:23:33.194Z,9.98
2023-05-22T03:24:33.282Z,9.72
2023-05-22T03:25:33.426Z,9.90
2023-05-22T03:26:34.085Z,10.33
2023-05-22T03:27:33.667Z,10.45
2023-05-22T03:28:33.818Z,9.92
2023-05-22T03:29:33.943Z,10.31
2023-05-22T03:30:34.083Z,10.39
2023-05-22T03:31:34.216Z,9.90
2023-05-22T03:32:34.435Z,10.71
2023-05-22T03:33:34.498Z,9.20
2023-05-22T03:34:34.598Z,10.66
2023-05-22T03:35:34.732Z,10.53
2023-05-22T03:36:34.925Z,12.02
2023-05-22T03:37:35.037Z,11.83
2023-05-22T03:38:35.154Z,10.89
2023-05-22T03:39:35.286Z,11.46
2023-05-22T03:40:35.462Z,11.21
2023-05-22T03:41:35.691Z,12.24
2023-05-22T03:42:35.799Z,12.14
2023-05-22T03:43:35.972Z,12.42
2023-05-22T03:44:36.112Z,11.51
2023-05-22T03:45:36.320Z,11.96
2023-05-22T03:46:36.451Z,12.31
2023-05-22T03:47:36.712Z,11.33
2023-05-22T03:48:36.798Z,11.86
2023-05-22T03:49:36.953Z,12.66
2023-05-22T03:50:37.177Z,12.58
2023-05-22T03:51:37.246Z,12.63
2023-05-22T03:52:37.359Z,12.07
2023-05-22T03:53:37.518Z,12.43
2023-05-22T03:54:37.713Z,12.00
2023-05-22T03:55:37.867Z,13.03
2023-05-22T03:56:38.069Z,12.81
2023-05-22T03:57:38.220Z,12.90
2023-05-22T03:58:38.350Z,12.72
2023-05-22T03:59:38.528Z,11.80
2023-05-22T04:00:38.789Z,13.00
2023-05-22T04:01:38.866Z,12.40
2023-05-22T04:02:39.186Z,11.67
2023-05-22T04:03:39.201Z,11.92
2023-05-22T04:04:39.386Z,11.76
2023-05-22T04:05:39.511Z,11.76
2023-05-22T04:06:39.663Z,11.96
2023-05-22T04:07:39.834Z,11.99
2023-05-22T04:08:39.963Z,12.46
2023-05-22T04:09:40.127Z,12.11
2023-05-22T04:10:40.485Z,11.82
2023-05-22T04:11:40.417Z,11.60
2023-05-22T04:12:40.561Z,12.95
2023-05-22T04:13:40.659Z,12.59
2023-05-22T04:14:40.852Z,11.55
2023-05-22T04:15:41.063Z,11.67
2023-05-22T04:16:41.209Z,11.57
2023-05-22T04:17:41.435Z,12.58
2023-05-22T04:18:41.500Z,12.86
2023-05-22T04:19:41.622Z,13.20
2023-05-22T04:20:41.929Z,11.57
2023-05-22T04:21:41.866Z,12.19
2023-05-22T04:22:41.995Z,12.04
2023-05-22T04:23:42.088Z,10.55
2023-05-22T04:24:42.208Z,12.29
2023-05-22T04:25:42.345Z,12.70
2023-05-22T04:26:42.797Z,12.32
2023-05-22T04:27:42.631Z,12.76
2023-05-22T04:28:42.816Z,12.30
2023-05-22T04:29:42.847Z,12.09
2023-05-22T04:30:43.036Z,13.52
2023-05-22T04:31:43.243Z,23.25
2023-05-22T04:32:43.228Z,19.18
2023-05-22T04:33:43.332Z,18.37
2023-05-22T04:34:43.436Z,18.00
2023-05-22T04:35:43.544Z,17.59
2023-05-22T04:36:43.666Z,86.20
2023-05-22T04:37:43.785Z,83.17
2023-05-22T04:38:43.920Z,58.52
2023-05-22T04:39:44.150Z,49.06
2023-05-22T04:40:44.128Z,67.51
2023-05-22T04:41:44.233Z,58.40
2023-05-22T04:42:44.351Z,49.44
2023-05-22T04:43:44.515Z,49.57
2023-05-22T04:44:44.576Z,44.60
2023-05-22T04:45:44.711Z,23.47
2023-05-22T04:46:44.911Z,19.77
2023-05-22T04:47:44.962Z,20.47
2023-05-22T04:48:45.123Z,18.10
2023-05-22T04:49:45.200Z,20.95
2023-05-22T04:50:45.285Z,21.52
2023-05-22T04:51:45.365Z,17.90
2023-05-22T04:52:45.507Z,16.31
2023-05-22T04:53:45.596Z,16.56
2023-05-22T04:54:45.734Z,18.26
2023-05-22T04:55:45.832Z,17.78
2023-05-22T04:56:45.939Z,17.78
2023-05-22T04:57:46.053Z,18.30
2023-05-22T04:58:46.223Z,17.39
2023-05-22T04:59:46.265Z,17.31
2023-05-22T05:00:46.439Z,16.31
2023-05-22T05:01:46.608Z,16.39
2023-05-22T05:02:46.815Z,13.51
2023-05-22T05:03:46.960Z,14.74
2023-05-22T05:04:47.106Z,14.69
2023-05-22T05:05:47.285Z,15.66
2023-05-22T05:06:47.431Z,15.73
2023-05-22T05:07:49.782Z,15.22
2023-05-22T05:08:47.846Z,16.10
2023-05-22T05:09:47.956Z,15.23
2023-05-22T05:10:48.100Z,15.02
2023-05-22T05:11:48.270Z,15.16
2023-05-22T05:12:48.392Z,14.77
2023-05-22T05:13:48.499Z,15.31
2023-05-22T05:14:48.641Z,14.84
2023-05-22T05:15:48.762Z,14.70
2023-05-22T05:16:48.954Z,15.24
2023-05-22T05:17:49.108Z,14.55
2023-05-22T05:18:49.232Z,15.18
2023-05-22T05:19:49.293Z,16.88
2023-05-22T05:20:49.467Z,14.33
2023-05-22T05:21:49.684Z,14.40
2023-05-22T05:22:50.599Z,13.85
2023-05-22T05:23:49.816Z,14.08
2023-05-22T05:24:49.900Z,13.91
2023-05-22T05:25:50.003Z,14.03
2023-05-22T05:26:50.120Z,13.44
2023-05-22T05:27:50.196Z,14.89
2023-05-22T05:28:50.300Z,14.10
2023-05-22T05:29:50.374Z,14.24
2023-05-22T05:30:50.622Z,14.65
2023-05-22T05:31:50.638Z,13.86
2023-05-22T05:32:50.760Z,12.33
2023-05-22T05:33:51.634Z,12.68
2023-05-22T05:34:51.316Z,12.77
2023-05-22T05:35:51.598Z,12.28
2023-05-22T05:36:52.692Z,12.31
2023-05-22T05:37:53.126Z,12.22
2023-05-22T05:38:52.100Z,12.81
2023-05-22T05:39:51.373Z,13.30
2023-05-22T05:40:51.529Z,12.47
2023-05-22T05:41:51.736Z,12.91
2023-05-22T05:42:51.778Z,13.50
2023-05-22T05:43:51.865Z,12.11
2023-05-22T05:44:52.629Z,12.67
2023-05-22T05:45:52.192Z,12.50
2023-05-22T05:46:53.204Z,11.50
2023-05-22T05:47:53.158Z,10.52
2023-05-22T05:48:52.596Z,12.34
2023-05-22T05:49:52.793Z,12.94
2023-05-22T05:50:52.867Z,11.87
2023-05-22T05:51:52.973Z,10.89
2023-05-22T05:52:55.121Z,12.19
2023-05-22T05:53:53.211Z,11.25
2023-05-22T05:54:53.370Z,10.78
2023-05-22T05:55:53.631Z,11.15
2023-05-22T05:56:53.577Z,12.34
2023-05-22T05:57:54.654Z,11.96
2023-05-22T05:58:53.850Z,10.97
2023-05-22T05:59:53.972Z,10.11
2023-05-22T06:00:54.070Z,9.26
2023-05-22T06:01:54.150Z,11.73
2023-05-22T06:02:54.327Z,11.33
2023-05-22T06:03:54.481Z,10.41
2023-05-22T06:04:55.138Z,12.12
2023-05-22T06:05:54.693Z,11.30
2023-05-22T06:06:54.665Z,10.14
2023-05-22T06:07:54.784Z,10.27
2023-05-22T06:08:54.854Z,11.06
2023-05-22T06:09:54.937Z,11.28
2023-05-22T06:10:55.006Z,12.52
2023-05-22T06:11:55.030Z,10.87
2023-05-22T06:12:55.105Z,10.54
2023-05-22T06:13:55.178Z,10.04
2023-05-22T06:14:55.227Z,11.40
2023-05-22T06:15:55.323Z,11.03
2023-05-22T06:16:55.507Z,10.37
2023-05-22T06:17:55.395Z,10.48
2023-05-22T06:18:55.453Z,10.96
2023-05-22T06:19:55.528Z,11.05
2023-05-22T06:20:55.569Z,11.80
2023-05-22T06:21:56.251Z,10.60
2023-05-22T06:22:56.124Z,9.64
2023-05-22T06:23:55.750Z,10.17
2023-05-22T06:24:55.859Z,10.88
2023-05-22T06:25:55.886Z,10.86
2023-05-22T06:26:55.922Z,9.62
2023-05-22T06:27:56.102Z,8.90
2023-05-22T06:28:58.721Z,9.52
2023-05-22T06:29:56.638Z,9.78
2023-05-22T06:31:02.615Z,9.97
2023-05-22T06:31:56.026Z,9.83
2023-05-22T06:32:56.100Z,9.63
2023-05-22T06:33:56.178Z,9.61
2023-05-22T06:34:56.136Z,8.62
2023-05-22T06:35:56.044Z,8.96
2023-05-22T06:36:56.048Z,8.46
2023-05-22T06:37:56.055Z,8.44
2023-05-22T06:38:58.699Z,8.64
2023-05-22T06:39:56.285Z,8.26
2023-05-22T06:40:56.323Z,8.53
2023-05-22T06:41:56.391Z,7.68
2023-05-22T06:42:56.459Z,8.53
2023-05-22T06:43:56.466Z,8.40
2023-05-22T06:44:56.632Z,9.00
2023-05-22T06:45:57.158Z,8.19
2023-05-22T06:46:56.601Z,6.95
2023-05-22T06:47:56.695Z,7.73
2023-05-22T06:48:57.636Z,8.15
2023-05-22T06:49:56.662Z,7.53
2023-05-22T06:50:57.638Z,8.05
2023-05-22T06:51:57.637Z,8.00
2023-05-22T06:52:57.160Z,8.68
2023-05-22T06:53:56.711Z,9.01
2023-05-22T06:54:57.643Z,8.09
2023-05-22T06:55:56.698Z,7.50
2023-05-22T06:56:57.644Z,7.74
2023-05-22T06:57:57.137Z,7.87
2023-05-22T06:58:56.960Z,7.87
2023-05-22T06:59:56.856Z,7.21
2023-05-22T07:00:56.870Z,7.71
2023-05-22T07:01:56.871Z,8.10
2023-05-22T07:02:56.985Z,7.52
2023-05-22T07:03:56.976Z,7.64
2023-05-22T07:04:58.660Z,8.16
2023-05-22T07:05:57.700Z,7.21
2023-05-22T07:06:57.044Z,7.95
2023-05-22T07:07:56.930Z,7.99
2023-05-22T07:08:56.910Z,7.23
2023-05-22T07:09:56.957Z,7.52
2023-05-22T07:10:57.634Z,7.81
2023-05-22T07:11:57.632Z,7.56
2023-05-22T07:12:56.953Z,7.83
2023-05-22T07:13:57.027Z,7.92
2023-05-22T07:14:57.002Z,7.89
2023-05-22T07:15:57.841Z,8.10
2023-05-22T07:16:57.080Z,7.55
2023-05-22T07:17:57.124Z,7.36
2023-05-22T07:18:57.081Z,6.91
2023-05-22T07:19:57.029Z,7.27
2023-05-22T07:20:57.062Z,7.92
2023-05-22T07:21:57.062Z,7.18
2023-05-22T07:22:57.285Z,6.88
2023-05-22T07:23:57.650Z,7.93
2023-05-22T07:24:57.253Z,7.29
2023-05-22T07:25:57.218Z,7.27
2023-05-22T07:26:57.250Z,7.23
2023-05-22T07:27:58.135Z,7.64
2023-05-22T07:28:57.320Z,6.94
2023-05-22T07:29:57.332Z,7.56
2023-05-22T07:30:57.403Z,7.29
2023-05-22T07:31:57.530Z,7.64
2023-05-22T07:32:58.510Z,7.14
2023-05-22T07:33:57.607Z,7.79
2023-05-22T07:34:58.425Z,7.08
2023-05-22T07:35:57.548Z,7.15
2023-05-22T07:36:59.148Z,7.22
2023-05-22T07:37:57.645Z,7.99
2023-05-22T07:38:57.807Z,7.90
2023-05-22T07:39:57.711Z,7.65
2023-05-22T07:40:57.751Z,7.32
2023-05-22T07:41:58.872Z,6.96
2023-05-22T07:42:57.765Z,8.03
2023-05-22T07:43:57.755Z,6.79
2023-05-22T07:44:57.754Z,6.84
2023-05-22T07:45:57.729Z,6.79
2023-05-22T07:46:57.722Z,6.86
2023-05-22T07:47:57.736Z,7.26
2023-05-22T07:48:57.670Z,7.24
2023-05-22T07:49:57.662Z,7.24
2023-05-22T07:51:00.661Z,7.29
2023-05-22T07:51:57.635Z,6.59
2023-05-22T07:52:57.639Z,7.16
2023-05-22T07:54:57.613Z,7.31
2023-05-22T07:55:58.183Z,6.43
2023-05-22T07:56:57.577Z,6.99
2023-05-22T07:57:57.746Z,6.77
2023-05-22T07:58:57.576Z,6.65
2023-05-22T07:59:57.601Z,6.91
2023-05-22T08:00:57.574Z,6.84
2023-05-22T08:01:58.403Z,5.79
2023-05-22T08:02:57.640Z,6.41
2023-05-22T08:03:57.645Z,6.86
2023-05-22T08:04:57.729Z,6.16
2023-05-22T08:05:57.546Z,5.82
2023-05-22T08:06:57.565Z,6.50
2023-05-22T08:07:57.581Z,6.94
2023-05-22T08:08:57.580Z,6.23
2023-05-22T08:09:57.559Z,6.31
2023-05-22T08:11:04.151Z,5.57
2023-05-22T08:11:58.643Z,6.47
2023-05-22T08:12:57.664Z,7.47
2023-05-22T08:13:57.537Z,6.55
2023-05-22T08:14:57.496Z,6.85
2023-05-22T08:16:00.592Z,6.87
2023-05-22T08:16:57.471Z,5.84
2023-05-22T08:17:57.495Z,6.42
2023-05-22T08:18:57.481Z,6.95
2023-05-22T08:19:57.468Z,6.34
2023-05-22T08:20:57.406Z,6.79
2023-05-22T08:21:57.368Z,7.04
2023-05-22T08:22:57.345Z,6.18
2023-05-22T08:23:57.312Z,6.26
2023-05-22T08:24:57.294Z,5.87
2023-05-22T08:25:57.241Z,6.03
2023-05-22T08:26:57.288Z,6.09
2023-05-22T08:27:57.660Z,6.17
2023-05-22T08:28:57.116Z,6.33
2023-05-22T08:29:57.691Z,5.75
2023-05-22T08:30:57.139Z,7.44
2023-05-22T08:31:57.181Z,5.93
2023-05-22T08:32:57.670Z,6.59
2023-05-22T08:33:57.148Z,6.04
2023-05-22T08:34:57.064Z,6.07
2023-05-22T08:35:57.673Z,6.17
2023-05-22T08:36:57.720Z,6.08
2023-05-22T08:37:57.165Z,6.38
2023-05-22T08:38:57.139Z,6.93
2023-05-22T08:39:57.467Z,5.78
2023-05-22T08:40:57.062Z,6.39
2023-05-22T08:41:57.136Z,6.96
2023-05-22T08:42:56.991Z,6.01
2023-05-22T08:43:57.095Z,5.91
2023-05-22T08:44:56.833Z,5.84
2023-05-22T08:45:57.019Z,5.70
2023-05-22T08:46:57.035Z,6.39
2023-05-22T08:47:57.031Z,5.79
2023-05-22T08:48:56.943Z,5.41
2023-05-22T08:49:56.987Z,6.79
2023-05-22T08:50:57.148Z,5.56
2023-05-22T08:51:57.138Z,5.60
2023-05-22T08:52:57.052Z,5.64
2023-05-22T08:53:57.118Z,6.29
2023-05-22T08:54:57.942Z,6.04
2023-05-22T08:55:57.060Z,5.94
2023-05-22T08:56:57.951Z,6.39
2023-05-22T08:57:57.213Z,5.79
2023-05-22T08:58:57.157Z,6.34
2023-05-22T08:59:57.224Z,6.18
2023-05-22T09:00:57.203Z,6.28
2023-05-22T09:01:57.825Z,5.86
2023-05-22T09:02:57.363Z,6.44
2023-05-22T09:03:57.149Z,5.65
2023-05-22T09:04:57.234Z,5.23
2023-05-22T09:05:57.004Z,5.70
2023-05-22T09:06:56.922Z,6.35
2023-05-22T09:08:02.789Z,5.63
2023-05-22T09:08:57.902Z,6.04
2023-05-22T09:09:56.774Z,5.94
2023-05-22T09:10:56.773Z,5.25
2023-05-22T09:11:56.690Z,5.85
2023-05-22T09:12:58.092Z,5.47
2023-05-22T09:13:56.710Z,5.41
2023-05-22T09:14:56.651Z,5.48
2023-05-22T09:15:56.549Z,5.98
2023-05-22T09:16:56.587Z,5.75
2023-05-22T09:17:56.963Z,6.37
2023-05-22T09:18:57.446Z,6.10
2023-05-22T09:19:56.585Z,5.82
2023-05-22T09:20:56.520Z,5.65
2023-05-22T09:21:56.519Z,5.81
2023-05-22T09:22:56.557Z,5.73
2023-05-22T09:23:56.591Z,6.32
2023-05-22T09:24:56.591Z,5.00
2023-05-22T09:25:56.605Z,6.04
2023-05-22T09:26:56.497Z,5.81
2023-05-22T09:27:56.463Z,5.35
2023-05-22T09:28:56.483Z,5.23
2023-05-22T09:29:56.505Z,5.56
2023-05-22T09:30:56.457Z,5.76
2023-05-22T09:31:56.455Z,6.63
2023-05-22T09:32:56.462Z,5.75
2023-05-22T09:33:56.329Z,5.64
2023-05-22T09:34:56.292Z,6.15
2023-05-22T09:35:56.281Z,5.88
2023-05-22T09:36:56.229Z,6.40
2023-05-22T09:37:56.795Z,5.76
2023-05-22T09:38:56.106Z,5.06
2023-05-22T09:39:56.131Z,5.61
2023-05-22T09:40:56.042Z,5.92
2023-05-22T09:41:56.070Z,5.10
2023-05-22T09:42:56.078Z,6.10
2023-05-22T09:43:56.041Z,5.66
2023-05-22T09:44:56.066Z,5.78
2023-05-22T09:45:56.078Z,5.43
2023-05-22T09:46:56.065Z,5.64
2023-05-22T09:47:56.107Z,6.03
2023-05-22T09:48:56.005Z,5.29
2023-05-22T09:49:56.068Z,5.48
2023-05-22T09:50:56.166Z,5.92
2023-05-22T09:51:56.176Z,5.93
2023-05-22T09:52:56.068Z,5.42
2023-05-22T09:53:56.034Z,5.34
2023-05-22T09:54:55.999Z,5.27
2023-05-22T09:55:56.022Z,5.24
2023-05-22T09:56:56.041Z,5.76
2023-05-22T09:57:56.072Z,5.44
2023-05-22T09:58:55.979Z,5.78
2023-05-22T09:59:55.999Z,5.55
2023-05-22T10:00:56.017Z,5.00
2023-05-22T10:01:55.989Z,5.21
2023-05-22T10:02:56.080Z,5.48
2023-05-22T10:03:56.009Z,5.56
2023-05-22T10:04:56.002Z,5.27
2023-05-22T10:05:55.963Z,5.19
2023-05-22T10:06:56.033Z,5.89
2023-05-22T10:07:56.045Z,5.72
2023-05-22T10:08:56.016Z,5.44
2023-05-22T10:09:56.026Z,5.41
2023-05-22T10:10:56.090Z,5.82
2023-05-22T10:11:56.452Z,5.25
2023-05-22T10:12:56.033Z,5.47
2023-05-22T10:13:56.833Z,5.39
2023-05-22T10:14:56.040Z,6.13
2023-05-22T10:15:56.109Z,5.62
2023-05-22T10:16:56.055Z,6.14
2023-05-22T10:17:56.041Z,4.95
2023-05-22T10:18:56.923Z,5.80
2023-05-22T10:19:55.975Z,5.11
2023-05-22T10:20:56.933Z,5.25
2023-05-22T10:21:55.949Z,5.32
2023-05-22T10:22:55.950Z,5.24
2023-05-22T10:23:56.031Z,5.32
2023-05-22T10:24:55.960Z,5.45
2023-05-22T10:25:56.017Z,5.37
2023-05-22T10:26:56.056Z,5.30
2023-05-22T10:27:57.769Z,5.61
2023-05-22T10:28:56.402Z,5.40
2023-05-22T10:29:56.007Z,4.75
2023-05-22T10:30:56.014Z,5.07
2023-05-22T10:31:56.065Z,5.47
2023-05-22T10:32:56.116Z,5.86
2023-05-22T10:33:56.122Z,5.69
2023-05-22T10:34:56.206Z,5.41
2023-05-22T10:35:56.204Z,5.24
2023-05-22T10:37:05.945Z,5.89
2023-05-22T10:37:57.748Z,5.32
2023-05-22T10:38:56.209Z,5.95
2023-05-22T10:39:56.269Z,5.45
2023-05-22T10:40:56.157Z,5.44
2023-05-22T10:41:57.631Z,5.40
2023-05-22T10:42:56.140Z,5.93
2023-05-22T10:43:56.163Z,4.78
2023-05-22T10:44:56.109Z,5.54
2023-05-22T10:45:56.206Z,5.91
2023-05-22T10:46:55.985Z,5.55
2023-05-22T10:47:55.994Z,5.74
2023-05-22T10:48:55.962Z,6.16
2023-05-22T10:49:55.967Z,5.46
2023-05-22T10:50:56.554Z,5.72
2023-05-22T10:51:55.893Z,5.21
2023-05-22T10:52:55.895Z,5.27
2023-05-22T10:53:55.921Z,5.78
2023-05-22T10:54:55.895Z,5.10
2023-05-22T10:55:55.899Z,6.03
2023-05-22T10:56:55.883Z,5.66
2023-05-22T10:57:55.871Z,5.61
2023-05-22T10:58:55.921Z,5.66
2023-05-22T10:59:55.887Z,5.91
2023-05-22T11:00:55.802Z,5.83
2023-05-22T11:01:55.851Z,5.71
2023-05-22T11:02:58.571Z,5.96
2023-05-22T11:03:57.276Z,4.63
2023-05-22T11:04:55.826Z,5.27
2023-05-22T11:05:55.637Z,5.31
2023-05-22T11:06:55.719Z,5.41
2023-05-22T11:07:55.618Z,5.69
2023-05-22T11:08:55.631Z,5.52
2023-05-22T11:09:55.588Z,5.54
2023-05-22T11:10:57.275Z,5.50
2023-05-22T11:11:55.664Z,5.93
2023-05-22T11:12:55.564Z,6.43
2023-05-22T11:13:55.536Z,5.65
2023-05-22T11:14:55.524Z,6.02
2023-05-22T11:15:55.453Z,6.17
2023-05-22T11:16:55.503Z,5.18
2023-05-22T11:17:55.517Z,6.53
2023-05-22T11:18:55.438Z,5.98
2023-05-22T11:19:56.310Z,5.34
2023-05-22T11:20:55.190Z,6.17
2023-05-22T11:21:55.199Z,5.85
2023-05-22T11:22:55.322Z,5.83
2023-05-22T11:23:55.030Z,5.14
2023-05-22T11:24:55.121Z,5.52
2023-05-22T11:25:54.923Z,5.15
2023-05-22T11:26:54.894Z,5.25
2023-05-22T11:27:54.827Z,5.40
2023-05-22T11:28:55.768Z,5.45
2023-05-22T11:29:54.869Z,5.20
2023-05-22T11:30:54.733Z,5.82
2023-05-22T11:31:54.588Z,5.42
2023-05-22T11:32:54.675Z,4.86
2023-05-22T11:33:54.501Z,5.15
2023-05-22T11:34:54.471Z,4.58
2023-05-22T11:35:54.361Z,5.56
2023-05-22T11:36:54.397Z,5.08
2023-05-22T11:37:54.333Z,4.90
2023-05-22T11:38:54.381Z,4.42
2023-05-22T11:39:54.306Z,5.30
2023-05-22T11:40:54.353Z,4.88
2023-05-22T11:41:54.278Z,5.03
2023-05-22T11:42:54.268Z,5.20
2023-05-22T11:43:54.194Z,4.97
2023-05-22T11:44:54.118Z,5.04
2023-05-22T11:45:54.099Z,4.41
2023-05-22T11:46:54.119Z,5.10
2023-05-22T11:47:53.986Z,4.79
2023-05-22T11:48:53.911Z,6.15
2023-05-22T11:49:53.899Z,5.45
2023-05-22T11:50:53.821Z,4.69
2023-05-22T11:51:53.762Z,5.03
2023-05-22T11:52:53.772Z,5.06
2023-05-22T11:53:53.721Z,4.95
2023-05-22T11:54:53.828Z,4.88
2023-05-22T11:55:53.714Z,5.55
2023-05-22T11:56:53.679Z,5.36
2023-05-22T11:57:53.737Z,4.92
2023-05-22T11:58:53.647Z,5.46
2023-05-22T11:59:53.672Z,5.45
2023-05-22T12:00:53.712Z,5.19
2023-05-22T12:01:53.664Z,5.40
2023-05-22T12:02:53.709Z,4.96
2023-05-22T12:03:53.845Z,5.50
2023-05-22T12:04:53.690Z,5.24
2023-05-22T12:05:53.734Z,4.60
2023-05-22T12:06:53.797Z,5.04
2023-05-22T12:07:53.660Z,4.89
2023-05-22T12:08:53.590Z,5.09
2023-05-22T12:09:53.527Z,5.01
2023-05-22T12:10:53.541Z,5.48
2023-05-22T12:11:53.389Z,4.97
2023-05-22T12:12:53.324Z,4.89
2023-05-22T12:13:53.289Z,4.76
2023-05-22T12:14:53.235Z,4.54
2023-05-22T12:15:53.200Z,4.83
2023-05-22T12:16:53.298Z,4.35
2023-05-22T12:17:53.100Z,4.91
2023-05-22T12:18:53.068Z,4.73
2023-05-22T12:19:52.957Z,5.04
2023-05-22T12:20:53.771Z,3.94
2023-05-22T12:21:52.847Z,5.02
2023-05-22T12:22:52.764Z,4.69
2023-05-22T12:23:52.706Z,4.58
2023-05-22T12:24:52.627Z,4.95
2023-05-22T12:25:52.618Z,4.70
2023-05-22T12:26:52.696Z,4.56
2023-05-22T12:27:52.591Z,4.55
2023-05-22T12:28:52.527Z,4.78
2023-05-22T12:29:52.530Z,5.19
2023-05-22T12:30:52.466Z,4.55
2023-05-22T12:31:52.499Z,4.82
2023-05-22T12:32:52.445Z,4.20
2023-05-22T12:33:52.399Z,4.67
2023-05-22T12:34:52.379Z,4.51
2023-05-22T12:35:52.369Z,5.36
2023-05-22T12:36:52.327Z,5.15
2023-05-22T12:37:52.381Z,4.37
2023-05-22T12:38:52.320Z,4.78
2023-05-22T12:39:52.251Z,4.01
2023-05-22T12:40:52.228Z,4.98
2023-05-22T12:41:52.246Z,5.02
2023-05-22T12:42:52.296Z,4.96
2023-05-22T12:43:52.207Z,4.55
2023-05-22T12:44:52.170Z,4.48
2023-05-22T12:45:52.153Z,5.06
2023-05-22T12:46:52.174Z,5.17
2023-05-22T12:47:52.143Z,4.85
2023-05-22T12:48:52.016Z,4.83
2023-05-22T12:49:52.022Z,4.98
2023-05-22T12:50:51.955Z,4.54
2023-05-22T12:51:51.821Z,4.19
2023-05-22T12:52:52.305Z,4.94
2023-05-22T12:53:52.290Z,4.59
2023-05-22T12:54:51.705Z,4.47
2023-05-22T12:55:51.707Z,4.13
2023-05-22T12:56:52.276Z,4.83
2023-05-22T12:57:52.303Z,4.21
2023-05-22T12:58:52.384Z,4.85
2023-05-22T12:59:51.521Z,4.96
2023-05-22T13:00:51.385Z,4.66
2023-05-22T13:01:51.214Z,4.88
2023-05-22T13:02:51.098Z,4.31
2023-05-22T13:03:51.018Z,4.29
2023-05-22T13:04:51.009Z,4.61
2023-05-22T13:05:51.777Z,5.19
2023-05-22T13:06:50.829Z,4.78
2023-05-22T13:07:50.770Z,4.73
2023-05-22T13:08:50.722Z,3.87
2023-05-22T13:09:52.196Z,4.66
2023-05-22T13:10:50.690Z,4.39
2023-05-22T13:11:50.726Z,4.75